Terminal Aerodrome Forecast
Issued by NWS Lake Charles, LA

Home | Current Version | Previous Version | Text Only | Print | Product List | Glossary On
Versions: 1 2 3 4 5 6 7 8 9 10 11 12 13 14 15
087
FTUS44 KLCH 291135
TAFLFT
TAF
KLFT 291135Z 2912/3012 15008KT P6SM OVC010
      TEMPO 2912/2914 4SM BR
     FM291600 15015G22KT P6SM BKN025
     FM291800 16016G24KT P6SM SCT025 BKN050
     FM300100 16011G17KT P6SM VCSH BKN025
     FM300900 16010G16KT 4SM SHRA SCT009 OVC015=

USA.gov is the U.S. government's official web portal to all federal, state and local government web resources and services.